Time;durP1;ratioP1;P1;durP2;ratioP2;P2;SDS_P1;SDS_P2;PMS_P1;PMS_P2;Temp;Humidity;BMP_temperature;BMP_pressure;BME280_temperature;BME280_humidity;BME280_pressure;Samples;Min_cycle;Max_cycle;Signal;HPM_P1;HPM_P2
2023/01/01 00:00:16;;;;;;;18.88;8.07;;;14.10;99.90;;;;;;5113620;28;20028;-61
2023/01/01 00:02:42;;;;;;;19.15;9.00;;;14.10;99.90;;;;;;5113528;28;20051;-61
2023/01/01 00:05:08;;;;;;;20.95;7.97;;;14.10;99.90;;;;;;5095343;28;20043;-61
2023/01/01 00:07:33;;;;;;;13.20;6.93;;;14.10;99.90;;;;;;5113474;28;20036;-62
2023/01/01 00:12:57;;;;;;;16.55;7.53;;;14.10;99.90;;;;;;5050627;28;20101;-61
2023/01/01 00:15:24;;;;;;;13.43;6.35;;;14.10;99.90;;;;;;5050330;28;20384;-62
2023/01/01 00:17:49;;;;;;;17.02;7.25;;;14.10;99.90;;;;;;5049205;28;20040;-62
2023/01/01 00:20:15;;;;;;;15.63;6.57;;;14.10;99.90;;;;;;5049268;28;20123;-62
2023/01/01 00:22:41;;;;;;;19.65;9.05;;;14.00;99.90;;;;;;5049848;28;20136;-62
2023/01/01 00:25:07;;;;;;;16.38;7.88;;;14.00;99.90;;;;;;5050191;28;20130;-62
2023/01/01 00:27:32;;;;;;;19.95;7.55;;;14.00;99.90;;;;;;5050363;28;20045;-61
2023/01/01 00:29:58;;;;;;;14.90;7.15;;;14.00;99.90;;;;;;5050291;28;20061;-62
2023/01/01 00:32:24;;;;;;;15.23;7.90;;;14.00;99.90;;;;;;5049986;28;20040;-62
2023/01/01 00:34:49;;;;;;;20.08;8.40;;;14.00;99.90;;;;;;5050042;28;20056;-62
2023/01/01 00:37:17;;;;;;;23.42;9.02;;;13.90;99.90;;;;;;5050066;28;20040;-62
2023/01/01 00:39:43;;;;;;;19.55;8.82;;;13.90;99.90;;;;;;5049905;28;20596;-62
2023/01/01 00:42:08;;;;;;;20.70;10.55;;;13.90;99.90;;;;;;5049891;28;20055;-62
2023/01/01 00:44:34;;;;;;;18.83;9.02;;;13.90;99.90;;;;;;5050142;28;20041;-62
2023/01/01 00:47:00;;;;;;;19.15;9.90;;;13.80;99.90;;;;;;5049405;28;20043;-62
2023/01/01 00:49:26;;;;;;;23.88;11.20;;;13.90;99.90;;;;;;5103745;28;20043;-62
2023/01/01 00:51:52;;;;;;;20.38;11.40;;;13.90;99.90;;;;;;5112453;28;20035;-63
2023/01/01 00:54:18;;;;;;;18.45;11.90;;;13.80;99.90;;;;;;5112666;28;20042;-62
2023/01/01 00:56:44;;;;;;;31.10;13.38;;;13.80;99.90;;;;;;5112496;28;20035;-62
2023/01/01 00:59:10;;;;;;;26.42;12.55;;;13.70;99.90;;;;;;5112649;28;20126;-62
2023/01/01 01:01:35;;;;;;;24.60;12.40;;;13.80;99.90;;;;;;5093565;28;20062;-62
2023/01/01 01:04:02;;;;;;;30.70;14.30;;;13.80;99.90;;;;;;5112820;28;20114;-62
2023/01/01 01:06:28;;;;;;;26.10;14.00;;;13.70;99.90;;;;;;5112381;28;20036;-63
2023/01/01 01:08:54;;;;;;;24.50;14.88;;;13.60;99.90;;;;;;5112579;28;20118;-62
2023/01/01 01:11:22;;;;;;;26.73;14.68;;;13.60;99.90;;;;;;5112482;28;20122;-62
2023/01/01 01:13:51;;;;;;;30.27;17.77;;;13.60;99.90;;;;;;5112617;28;20039;-62
2023/01/01 01:16:16;;;;;;;;;;;13.60;99.90;;;;;;5112644;28;20042;-62
2023/01/01 01:18:43;;;;;;;36.40;22.17;;;13.60;99.90;;;;;;5111448;28;19919;-62
2023/01/01 01:21:09;;;;;;;34.97;23.65;;;13.50;99.90;;;;;;5110406;28;20039;-62
2023/01/01 01:23:35;;;;;;;32.35;23.98;;;13.40;99.90;;;;;;5112340;28;20409;-62
2023/01/01 01:26:09;;;;;;;38.03;26.23;;;13.30;99.90;;;;;;5111922;28;20099;-62
2023/01/01 01:28:34;;;;;;;38.97;25.25;;;13.20;99.90;;;;;;5112377;28;20122;-62
2023/01/01 01:31:00;;;;;;;35.88;25.27;;;13.20;99.90;;;;;;5112142;28;20119;-62
2023/01/01 01:33:26;;;;;;;34.08;22.65;;;13.10;99.90;;;;;;5112215;28;20036;-61
2023/01/01 01:35:51;;;;;;;36.95;24.95;;;13.10;99.90;;;;;;5112155;28;20052;-62
2023/01/01 01:38:17;;;;;;;36.33;24.92;;;13.10;99.90;;;;;;5112006;28;20079;-61
2023/01/01 01:40:43;;;;;;;36.30;25.45;;;13.00;99.90;;;;;;5112124;28;20078;-61
2023/01/01 01:43:32;;;;;;;38.22;28.35;;;13.00;99.90;;;;;;5111862;28;20494;-62
2023/01/01 01:46:04;;;;;;;39.65;29.75;;;12.90;99.90;;;;;;5009608;28;20056;-62
2023/01/01 01:48:38;;;;;;;47.08;28.90;;;12.80;99.90;;;;;;5008250;28;20053;-63
2023/01/01 01:51:04;;;;;;;40.33;28.17;;;12.80;99.90;;;;;;5008097;28;20185;-61
2023/01/01 01:53:34;;;;;;;42.55;28.45;;;12.90;99.90;;;;;;4993539;28;20046;-62
2023/01/01 01:56:03;;;;;;;45.03;29.10;;;12.80;99.90;;;;;;5009454;28;20447;-62
2023/01/01 01:58:30;;;;;;;45.85;28.63;;;12.80;99.90;;;;;;5009723;28;20103;-62
2023/01/01 02:00:56;;;;;;;46.05;31.08;;;12.70;99.90;;;;;;5009417;28;20442;-62
2023/01/01 02:03:27;;;;;;;47.80;30.88;;;12.80;99.90;;;;;;5009300;28;20042;-62
2023/01/01 02:05:53;;;;;;;52.30;33.67;;;12.70;99.90;;;;;;4977168;28;20472;-63
2023/01/01 02:08:20;;;;;;;49.42;32.72;;;12.60;99.90;;;;;;5009404;28;20041;-62
2023/01/01 02:10:46;;;;;;;56.72;33.83;;;12.50;99.90;;;;;;5009413;28;20048;-62
2023/01/01 02:13:13;;;;;;;52.00;35.72;;;12.60;99.90;;;;;;5010590;28;20399;-62
2023/01/01 02:16:00;;;;;;;53.30;37.38;;;12.60;99.90;;;;;;5013126;28;20045;-63
2023/01/01 02:18:51;;;;;;;52.28;35.90;;;12.50;99.90;;;;;;5011617;28;20034;-62
2023/01/01 02:21:22;;;;;;;54.40;38.67;;;12.40;99.90;;;;;;4953238;29;20047;-61
2023/01/01 02:23:53;;;;;;;53.95;37.58;;;12.40;99.90;;;;;;5035784;28;20395;-62
2023/01/01 02:26:44;;;;;;;48.30;33.38;;;12.50;99.90;;;;;;5052528;28;20060;-62
2023/01/01 02:29:21;;;;;;;46.65;34.75;;;12.40;99.90;;;;;;5046751;28;20047;-62
2023/01/01 02:32:01;;;;;;;42.17;32.80;;;12.50;99.90;;;;;;5052602;28;20057;-62
2023/01/01 02:34:34;;;;;;;43.28;31.30;;;12.60;99.90;;;;;;5052558;28;20045;-61
2023/01/01 02:37:03;;;;;;;46.70;32.30;;;12.70;99.90;;;;;;5052428;28;20120;-61
2023/01/01 02:39:30;;;;;;;;;;;12.70;99.90;;;;;;5052838;28;20052;-62
2023/01/01 02:41:57;;;;;;;44.85;30.05;;;12.70;99.90;;;;;;5052318;28;19972;-63
2023/01/01 02:44:27;;;;;;;47.25;28.60;;;12.70;99.90;;;;;;5052393;28;20071;-62
2023/01/01 02:46:52;;;;;;;45.88;30.00;;;12.70;99.90;;;;;;5052171;28;20049;-62
2023/01/01 02:49:18;;;;;;;42.13;29.25;;;12.60;99.90;;;;;;5052406;28;20043;-62
2023/01/01 02:52:15;;;;;;;40.58;27.77;;;12.60;99.90;;;;;;5052224;28;20131;-62
2023/01/01 02:55:03;;;;;;;42.00;26.85;;;12.60;99.90;;;;;;5052288;28;20041;-62
2023/01/01 02:57:44;;;;;;;42.13;25.88;;;12.50;99.90;;;;;;5064001;28;20058;-62
2023/01/01 03:00:23;;;;;;;36.72;26.30;;;12.50;99.90;;;;;;5114979;28;20072;-62
2023/01/01 03:03:07;;;;;;;41.10;25.30;;;12.40;99.90;;;;;;5114701;28;20032;-62
2023/01/01 03:09:21;;;;;;;46.42;25.27;;;12.30;99.90;;;;;;5071995;28;20072;-62
2023/01/01 03:12:24;;;;;;;37.13;23.40;;;12.40;99.90;;;;;;5055453;28;20135;-63
2023/01/01 03:14:57;;;;;;;39.85;24.60;;;12.40;99.90;;;;;;5071948;28;20040;-61
2023/01/01 03:17:34;;;;;;;38.35;24.42;;;12.40;99.90;;;;;;5071398;28;20214;-62
2023/01/01 03:20:05;;;;;;;34.75;18.60;;;12.40;99.90;;;;;;5071747;28;20051;-62
2023/01/01 03:22:34;;;;;;;28.15;16.52;;;12.30;99.90;;;;;;5071521;28;20105;-62
2023/01/01 03:25:06;;;;;;;29.65;16.75;;;12.30;99.90;;;;;;5070755;28;20052;-62
2023/01/01 03:27:45;;;;;;;30.00;16.98;;;12.30;99.90;;;;;;5071669;28;20131;-61
2023/01/01 03:30:12;;;;;;;32.80;17.55;;;12.00;99.90;;;;;;5071501;28;20103;-62
2023/01/01 03:35:33;;;;;;;33.70;17.05;;;11.80;99.90;;;;;;5071355;28;20044;-63
2023/01/01 03:38:00;;;;;;;32.92;15.90;;;11.80;99.90;;;;;;5071655;28;20461;-63
2023/01/01 03:40:29;;;;;;;26.63;16.38;;;11.70;99.90;;;;;;5071256;28;20044;-62
2023/01/01 03:42:58;;;;;;;;;;;11.70;99.90;;;;;;5094254;28;20096;-61
2023/01/01 03:45:37;;;;;;;27.23;14.40;;;11.80;99.90;;;;;;5114169;28;19916;-62
2023/01/01 03:48:04;;;;;;;23.85;12.68;;;11.80;99.90;;;;;;5114134;28;20035;-63
2023/01/01 03:50:45;;;;;;;30.50;15.07;;;11.60;99.90;;;;;;5113989;28;20377;-62
2023/01/01 03:53:38;;;;;;;25.08;11.82;;;11.70;99.90;;;;;;5114209;28;20039;-62
2023/01/01 03:56:13;;;;;;;26.95;12.00;;;11.50;99.90;;;;;;5095870;28;20031;-62
2023/01/01 03:58:46;;;;;;;23.13;12.23;;;11.70;99.90;;;;;;5113871;28;20092;-62
2023/01/01 04:01:35;;;;;;;19.42;10.77;;;11.70;99.90;;;;;;5113742;28;20040;-62
2023/01/01 04:04:03;;;;;;;17.58;10.02;;;11.50;99.90;;;;;;5113939;28;20073;-62
2023/01/01 04:06:31;;;;;;;13.40;7.72;;;11.50;99.90;;;;;;5113980;28;20039;-62
2023/01/01 04:08:59;;;;;;;16.17;7.77;;;11.70;99.90;;;;;;5095853;28;20359;-62
2023/01/01 04:14:12;;;;;;;12.05;6.90;;;11.70;99.90;;;;;;5095384;28;20546;-61
2023/01/01 04:16:37;;;;;;;12.35;7.10;;;11.60;99.90;;;;;;5113858;28;20044;-62
2023/01/01 04:19:05;;;;;;;17.58;6.50;;;11.80;99.90;;;;;;5113357;28;20039;-62
2023/01/01 04:21:32;;;;;;;14.07;5.65;;;11.70;99.90;;;;;;5113600;28;20054;-62
2023/01/01 04:23:58;;;;;;;16.30;5.43;;;11.60;99.90;;;;;;5113338;28;20043;-63
2023/01/01 04:26:23;;;;;;;13.35;4.50;;;11.80;99.90;;;;;;5112936;28;20397;-62
2023/01/01 04:28:49;;;;;;;14.82;4.85;;;11.90;99.90;;;;;;5113230;28;20047;-62
2023/01/01 04:31:15;;;;;;;12.55;4.75;;;12.00;99.90;;;;;;5113315;28;20047;-62
2023/01/01 04:33:41;;;;;;;18.17;6.38;;;12.10;99.90;;;;;;5095102;28;20044;-63
2023/01/01 04:36:08;;;;;;;16.77;5.65;;;12.00;99.90;;;;;;5112631;28;20039;-61
2023/01/01 04:38:35;;;;;;;20.33;5.65;;;11.90;99.90;;;;;;5112749;28;20061;-63
2023/01/01 04:41:02;;;;;;;14.38;4.88;;;11.70;99.90;;;;;;5112893;28;20118;-62
2023/01/01 04:43:28;;;;;;;20.80;5.95;;;11.70;99.90;;;;;;5113083;28;20358;-62
2023/01/01 04:45:59;;;;;;;22.17;6.45;;;11.70;99.90;;;;;;5113054;28;20480;-62
2023/01/01 04:48:25;;;;;;;26.90;4.97;;;11.80;99.90;;;;;;5112930;28;20401;-62
2023/01/01 04:51:03;;;;;;;20.40;4.53;;;11.60;99.90;;;;;;5113185;28;20032;-62
2023/01/01 04:53:31;;;;;;;16.20;5.68;;;11.60;99.90;;;;;;5112758;28;20039;-63
2023/01/01 04:56:03;;;;;;;21.40;6.97;;;11.60;99.90;;;;;;5112540;28;20035;-62
2023/01/01 04:58:29;;;;;;;24.05;7.47;;;11.70;99.90;;;;;;5112579;28;20040;-63
2023/01/01 05:00:54;;;;;;;22.42;6.43;;;11.50;99.90;;;;;;5112500;28;20144;-63
2023/01/01 05:03:20;;;;;;;17.83;6.70;;;11.70;99.90;;;;;;5094511;28;20031;-62
2023/01/01 05:05:47;;;;;;;20.85;6.43;;;11.70;99.90;;;;;;5112524;28;20478;-63
2023/01/01 05:08:13;;;;;;;13.25;4.80;;;11.60;99.90;;;;;;5112481;28;20043;-62
2023/01/01 05:10:38;;;;;;;20.58;6.03;;;11.60;99.90;;;;;;5112432;28;20035;-62
2023/01/01 05:13:08;;;;;;;14.30;3.90;;;11.60;99.90;;;;;;5112560;28;20099;-61
2023/01/01 05:15:37;;;;;;;14.07;3.88;;;11.70;99.90;;;;;;5094427;28;20126;-62
2023/01/01 05:18:02;;;;;;;11.18;3.55;;;11.70;99.90;;;;;;5112460;28;20043;-62
2023/01/01 05:20:28;;;;;;;13.68;4.70;;;11.70;99.90;;;;;;5094418;28;20048;-61
2023/01/01 05:22:54;;;;;;;10.75;3.83;;;11.70;99.90;;;;;;5112223;28;20478;-62
2023/01/01 05:25:19;;;;;;;16.50;3.38;;;11.80;99.90;;;;;;5112467;28;20051;-62
2023/01/01 05:27:45;;;;;;;16.13;3.92;;;11.70;99.90;;;;;;5112482;28;20119;-62
2023/01/01 05:30:11;;;;;;;13.23;3.00;;;11.70;99.90;;;;;;5112393;28;20526;-63
2023/01/01 05:32:37;;;;;;;14.48;3.85;;;11.80;99.90;;;;;;5112702;28;20047;-62
2023/01/01 05:35:03;;;;;;;9.40;3.72;;;11.80;99.90;;;;;;5112322;28;20143;-61
2023/01/01 05:37:28;;;;;;;13.25;2.97;;;11.80;99.90;;;;;;5112401;28;20044;-61
2023/01/01 05:39:54;;;;;;;10.70;2.90;;;11.80;99.90;;;;;;5112315;28;20039;-62
2023/01/01 05:42:19;;;;;;;13.82;3.40;;;11.90;99.90;;;;;;5112315;28;20039;-62
2023/01/01 05:44:45;;;;;;;11.50;3.38;;;11.90;99.90;;;;;;5112024;28;20481;-63
2023/01/01 05:47:11;;;;;;;16.92;3.90;;;11.80;99.90;;;;;;5112286;28;20036;-62
2023/01/01 05:49:36;;;;;;;9.25;2.75;;;12.00;99.90;;;;;;5115631;28;20024;-62
2023/01/01 05:52:03;;;;;;;13.52;3.72;;;11.90;99.90;;;;;;5116505;28;20123;-62
2023/01/01 05:54:28;;;;;;;8.52;2.90;;;11.90;99.90;;;;;;5116330;28;20043;-62
2023/01/01 05:56:54;;;;;;;9.25;2.95;;;11.90;99.90;;;;;;5116196;28;20057;-62
2023/01/01 05:59:19;;;;;;;8.60;2.35;;;11.80;99.90;;;;;;5116055;28;20066;-62
2023/01/01 06:01:45;;;;;;;8.35;2.45;;;11.90;99.90;;;;;;5116061;28;20040;-62
2023/01/01 06:04:10;;;;;;;6.65;2.33;;;11.80;99.90;;;;;;5116279;28;20057;-62
2023/01/01 06:06:36;;;;;;;10.48;2.75;;;11.80;99.90;;;;;;5116356;28;20031;-62
2023/01/01 06:09:03;;;;;;;13.35;2.97;;;11.90;99.90;;;;;;5116051;28;20081;-62
2023/01/01 06:11:30;;;;;;;11.48;2.20;;;11.90;99.90;;;;;;5115935;28;20044;-61
2023/01/01 06:13:58;;;;;;;8.13;1.92;;;11.90;99.90;;;;;;5115905;28;20118;-62
2023/01/01 06:16:25;;;;;;;7.13;2.35;;;11.90;99.90;;;;;;5115966;28;20044;-62
2023/01/01 06:18:51;;;;;;;10.38;1.85;;;11.80;99.90;;;;;;5115613;28;20040;-62
2023/01/01 06:21:19;;;;;;;8.95;2.00;;;11.90;99.90;;;;;;5115889;28;20047;-62
2023/01/01 06:23:46;;;;;;;7.32;2.10;;;11.90;99.90;;;;;;5115865;28;20114;-62
2023/01/01 06:26:17;;;;;;;6.50;1.67;;;11.80;99.90;;;;;;5115520;28;20062;-62
2023/01/01 06:28:44;;;;;;;9.35;2.58;;;11.90;99.90;;;;;;5115626;28;20391;-62
2023/01/01 06:31:12;;;;;;;7.32;1.63;;;11.80;99.90;;;;;;5115528;28;20359;-62
2023/01/01 06:33:38;;;;;;;11.23;1.90;;;11.80;99.90;;;;;;5115455;28;20047;-62
2023/01/01 06:36:07;;;;;;;6.25;1.48;;;11.90;99.90;;;;;;5115582;28;20109;-63
2023/01/01 06:38:36;;;;;;;10.20;1.70;;;11.80;99.90;;;;;;5115305;28;20040;-62
2023/01/01 06:41:04;;;;;;;7.95;1.67;;;11.70;99.90;;;;;;5115208;28;20508;-62
2023/01/01 06:43:32;;;;;;;6.35;2.08;;;11.80;99.90;;;;;;5115441;28;20070;-62
2023/01/01 06:46:21;;;;;;;13.40;2.08;;;11.80;99.90;;;;;;5115311;28;20032;-62
2023/01/01 06:48:49;;;;;;;9.27;2.05;;;11.70;99.90;;;;;;5012622;28;20042;-62
2023/01/01 06:51:18;;;;;;;14.13;1.80;;;11.70;99.90;;;;;;5012585;28;20151;-62
2023/01/01 06:53:44;;;;;;;10.77;1.88;;;11.70;99.90;;;;;;5012625;28;20065;-62
2023/01/01 06:56:10;;;;;;;11.50;1.98;;;11.70;99.90;;;;;;5012398;28;20076;-62
2023/01/01 06:58:36;;;;;;;11.90;2.80;;;11.70;99.90;;;;;;5012578;28;20515;-62
2023/01/01 07:01:13;;;;;;;8.32;1.95;;;11.70;99.90;;;;;;5011225;28;20093;-62
2023/01/01 07:03:39;;;;;;;9.68;2.45;;;11.60;99.90;;;;;;5012477;28;20065;-62
2023/01/01 07:06:06;;;;;;;9.63;1.90;;;11.60;99.90;;;;;;5012476;28;20132;-62
2023/01/01 07:08:32;;;;;;;11.55;2.17;;;11.50;99.90;;;;;;5012213;28;20042;-63
2023/01/01 07:10:58;;;;;;;9.27;2.05;;;11.50;99.90;;;;;;5012149;28;20042;-62
2023/01/01 07:13:24;;;;;;;13.40;2.78;;;11.60;99.90;;;;;;5012422;28;20050;-62
2023/01/01 07:15:50;;;;;;;8.93;2.30;;;11.60;99.90;;;;;;5012565;28;20046;-62
2023/01/01 07:18:16;;;;;;;8.45;2.20;;;11.60;99.90;;;;;;5012291;28;20511;-62
2023/01/01 07:20:42;;;;;;;15.65;2.97;;;11.60;99.90;;;;;;4995981;28;20622;-63
2023/01/01 07:23:10;;;;;;;16.05;2.90;;;11.50;99.90;;;;;;5011913;28;20058;-62
2023/01/01 07:25:36;;;;;;;12.75;2.47;;;11.50;99.90;;;;;;5056553;28;20051;-63
2023/01/01 07:28:01;;;;;;;14.52;2.50;;;11.50;99.90;;;;;;5114655;28;20032;-63
2023/01/01 07:30:27;;;;;;;12.77;3.28;;;11.40;99.90;;;;;;5114471;28;20054;-62
2023/01/01 07:32:55;;;;;;;12.25;3.85;;;11.40;99.90;;;;;;5114395;28;20110;-62
2023/01/01 07:35:21;;;;;;;14.13;3.35;;;11.40;99.90;;;;;;5114389;28;20043;-63
2023/01/01 07:37:47;;;;;;;15.07;2.75;;;11.40;99.90;;;;;;5114264;28;20063;-63
2023/01/01 07:40:13;;;;;;;15.15;3.10;;;11.30;99.90;;;;;;5114069;28;20039;-62
2023/01/01 07:42:38;;;;;;;17.40;2.30;;;11.30;99.90;;;;;;5096046;28;20032;-63
2023/01/01 07:45:04;;;;;;;19.45;3.47;;;11.30;99.90;;;;;;5114172;28;20039;-62
2023/01/01 07:47:30;;;;;;;12.30;2.30;;;11.30;99.90;;;;;;5113987;28;20062;-63
2023/01/01 07:49:56;;;;;;;17.27;3.03;;;11.30;99.90;;;;;;5114014;28;20031;-62
2023/01/01 07:52:21;;;;;;;18.50;4.03;;;11.30;99.90;;;;;;5113999;28;20047;-63
2023/01/01 07:54:47;;;;;;;18.13;2.95;;;11.30;99.90;;;;;;5113649;28;20039;-63
2023/01/01 07:57:12;;;;;;;15.93;3.17;;;11.20;99.90;;;;;;5113699;28;20549;-62
2023/01/01 07:59:38;;;;;;;18.88;3.47;;;11.30;99.90;;;;;;5114041;28;20039;-62
2023/01/01 08:02:04;;;;;;;22.35;3.28;;;11.30;99.90;;;;;;5113742;28;20043;-61
2023/01/01 08:04:29;;;;;;;22.48;4.05;;;11.20;99.90;;;;;;5113746;28;20055;-60
2023/01/01 08:06:55;;;;;;;13.95;3.08;;;11.20;99.90;;;;;;5113805;28;20861;-60
2023/01/01 08:09:21;;;;;;;16.48;3.90;;;11.20;99.90;;;;;;5113357;28;20036;-60
2023/01/01 08:11:46;;;;;;;12.35;2.53;;;11.20;99.90;;;;;;5113395;28;20038;-61
2023/01/01 08:14:12;;;;;;;22.92;3.80;;;11.10;99.90;;;;;;5113560;28;20035;-60
2023/01/01 08:16:38;;;;;;;16.95;2.97;;;11.20;99.90;;;;;;5113450;28;20118;-60
2023/01/01 08:19:04;;;;;;;18.95;3.42;;;11.20;99.90;;;;;;5113265;28;20145;-60
2023/01/01 08:21:30;;;;;;;14.63;2.92;;;11.30;99.90;;;;;;5113362;28;20062;-61
2023/01/01 08:23:56;;;;;;;17.13;3.45;;;11.20;99.90;;;;;;5113167;28;20036;-60
2023/01/01 08:26:30;;;;;;;17.48;3.90;;;11.20;99.90;;;;;;5113110;28;20126;-60
2023/01/01 08:28:56;;;;;;;20.02;3.50;;;11.20;99.90;;;;;;5113292;28;20141;-60
2023/01/01 08:31:23;;;;;;;15.68;4.07;;;11.20;99.90;;;;;;5113138;28;20067;-61
2023/01/01 08:33:48;;;;;;;18.98;3.75;;;11.20;99.90;;;;;;5113015;28;20040;-60
2023/01/01 08:36:15;;;;;;;20.95;3.65;;;11.20;99.90;;;;;;5112852;28;20039;-60
2023/01/01 08:38:44;;;;;;;25.85;3.55;;;11.20;99.90;;;;;;5113101;28;20040;-60
2023/01/01 08:41:09;;;;;;;23.90;3.47;;;11.10;99.90;;;;;;5112941;28;20043;-60
2023/01/01 08:43:35;;;;;;;21.20;4.47;;;11.20;99.90;;;;;;5112985;28;20042;-60
2023/01/01 08:46:00;;;;;;;18.50;3.13;;;11.20;99.90;;;;;;5112881;28;20517;-60
2023/01/01 08:48:26;;;;;;;36.30;5.20;;;11.10;99.90;;;;;;5112661;28;20082;-61
2023/01/01 08:50:53;;;;;;;21.15;3.63;;;11.10;99.90;;;;;;5112710;28;20067;-60
2023/01/01 08:53:19;;;;;;;19.13;4.45;;;11.20;99.90;;;;;;5112832;28;20424;-60
2023/01/01 08:55:44;;;;;;;22.92;3.65;;;11.20;99.90;;;;;;5112807;28;20104;-61
2023/01/01 08:58:10;;;;;;;20.08;4.55;;;11.20;99.90;;;;;;5112580;28;20366;-61
2023/01/01 09:00:35;;;;;;;26.70;3.72;;;11.20;99.90;;;;;;5112665;28;20035;-60
2023/01/01 09:03:01;;;;;;;30.55;4.43;;;11.20;99.90;;;;;;5112470;28;20123;-60
2023/01/01 09:05:26;;;;;;;30.20;4.50;;;11.20;99.90;;;;;;5112529;28;20063;-60
2023/01/01 09:07:52;;;;;;;22.55;3.92;;;11.20;99.90;;;;;;5112329;28;20177;-61
2023/01/01 09:10:18;;;;;;;23.27;4.47;;;11.20;99.90;;;;;;5112940;28;20046;-60
2023/01/01 09:12:43;;;;;;;24.23;4.15;;;11.10;99.90;;;;;;5112631;28;20047;-60
2023/01/01 09:15:15;;;;;;;25.17;3.92;;;11.10;99.90;;;;;;5112648;28;20035;-60
2023/01/01 09:17:41;;;;;;;22.30;3.70;;;11.20;99.90;;;;;;5112369;28;20085;-60
2023/01/01 09:20:07;;;;;;;21.75;3.35;;;11.20;99.90;;;;;;5112296;28;20489;-60
2023/01/01 09:22:33;;;;;;;23.52;3.60;;;11.20;99.90;;;;;;5112006;28;20082;-60
2023/01/01 09:24:58;;;;;;;17.27;3.97;;;11.20;99.90;;;;;;5112680;28;20086;-61
2023/01/01 09:27:24;;;;;;;17.60;3.22;;;11.20;99.90;;;;;;5112479;28;20405;-60
2023/01/01 09:29:50;;;;;;;21.90;3.80;;;11.30;99.90;;;;;;5112369;28;20027;-60
2023/01/01 09:32:15;;;;;;;22.52;3.58;;;11.30;99.90;;;;;;5094007;28;20047;-60
2023/01/01 09:34:41;;;;;;;24.48;5.93;;;11.30;99.90;;;;;;5111821;28;20058;-60
2023/01/01 09:37:06;;;;;;;25.73;4.57;;;11.30;99.90;;;;;;5094256;28;20092;-60
2023/01/01 09:39:32;;;;;;;26.48;3.70;;;11.30;99.90;;;;;;5093916;28;20043;-61
2023/01/01 09:42:01;;;;;;;17.30;3.45;;;11.30;99.90;;;;;;5111999;28;20078;-60
2023/01/01 09:44:26;;;;;;;24.80;3.95;;;11.30;99.90;;;;;;5112202;28;20063;-61
2023/01/01 09:46:53;;;;;;;23.63;3.83;;;11.30;99.90;;;;;;5112088;28;20075;-60
2023/01/01 09:49:30;;;;;;;20.25;3.53;;;11.30;99.90;;;;;;5111863;28;20042;-60
2023/01/01 09:52:00;;;;;;;19.48;3.75;;;11.30;99.90;;;;;;5112288;28;20544;-60
2023/01/01 09:54:38;;;;;;;22.58;4.80;;;11.50;99.90;;;;;;5111973;28;20052;-61
2023/01/01 09:57:09;;;;;;;20.63;3.58;;;11.40;99.90;;;;;;5112106;28;20040;-61
2023/01/01 09:59:35;;;;;;;26.25;4.72;;;11.40;99.90;;;;;;5111812;28;20485;-60
2023/01/01 10:02:00;;;;;;;20.23;5.10;;;11.40;99.90;;;;;;5111841;28;20035;-61
2023/01/01 10:04:44;;;;;;;23.52;4.10;;;11.40;99.90;;;;;;5112059;28;20040;-60
2023/01/01 10:07:42;;;;;;;23.88;3.58;;;11.50;99.90;;;;;;5111827;28;20554;-60
2023/01/01 10:10:20;;;;;;;22.60;4.40;;;11.50;99.90;;;;;;5111249;28;20126;-60
2023/01/01 10:13:05;;;;;;;22.38;5.13;;;11.50;99.90;;;;;;5111808;28;20089;-60
2023/01/01 10:15:33;;;;;;;29.70;5.82;;;11.60;99.90;;;;;;5093481;28;20035;-60
2023/01/01 10:18:04;;;;;;;23.52;5.05;;;11.60;99.90;;;;;;5111803;28;20052;-60
2023/01/01 10:20:37;;;;;;;29.77;3.88;;;11.70;99.90;;;;;;5111633;28;20036;-60
2023/01/01 10:23:25;;;;;;;25.08;3.65;;;11.70;99.90;;;;;;5111856;28;20051;-59
2023/01/01 10:25:52;;;;;;;30.88;4.50;;;11.70;99.90;;;;;;5111584;28;20083;-59
2023/01/01 10:28:38;;;;;;;29.65;4.15;;;11.70;99.90;;;;;;5111792;28;20393;-60
2023/01/01 10:31:33;;;;;;;21.35;3.70;;;11.80;99.90;;;;;;5111460;28;20039;-60
2023/01/01 10:34:05;;;;;;;15.77;4.15;;;11.80;99.90;;;;;;5112041;28;20557;-61
2023/01/01 10:36:31;;;;;;;23.25;4.80;;;11.80;99.90;;;;;;5115367;28;20039;-60
2023/01/01 10:38:57;;;;;;;22.35;4.38;;;11.70;99.90;;;;;;5115188;28;20040;-61
2023/01/01 10:41:23;;;;;;;19.67;3.30;;;11.70;99.90;;;;;;5115088;28;20047;-60
2023/01/01 10:43:49;;;;;;;20.58;4.07;;;11.70;99.90;;;;;;5096626;28;20059;-60
2023/01/01 10:46:20;;;;;;;17.85;4.45;;;11.70;99.90;;;;;;5115344;28;20040;-60
2023/01/01 10:49:06;;;;;;;21.00;3.25;;;11.60;99.90;;;;;;5115169;28;20039;-60
2023/01/01 10:51:34;;;;;;;30.67;4.50;;;11.60;99.90;;;;;;5115071;28;20044;-60
2023/01/01 10:54:00;;;;;;;13.93;3.22;;;11.60;99.90;;;;;;5114765;28;20040;-60
2023/01/01 10:56:38;;;;;;;16.00;2.88;;;11.60;99.90;;;;;;5115065;28;20456;-60
2023/01/01 10:59:24;;;;;;;18.00;3.33;;;11.60;99.90;;;;;;5115088;28;20043;-60
2023/01/01 11:02:27;;;;;;;17.27;3.40;;;11.70;99.90;;;;;;5114609;28;20075;-60
2023/01/01 11:05:13;;;;;;;17.17;3.20;;;11.70;99.90;;;;;;5114489;28;20075;-60
2023/01/01 11:07:41;;;;;;;15.85;2.75;;;11.80;99.90;;;;;;5114840;28;20042;-59
2023/01/01 11:10:30;;;;;;;21.50;4.32;;;11.80;99.90;;;;;;5096398;28;20042;-59
2023/01/01 11:12:56;;;;;;;16.35;3.03;;;11.80;99.90;;;;;;5096433;28;20047;-60
2023/01/01 11:15:24;;;;;;;16.85;3.65;;;11.80;99.90;;;;;;5114751;28;20430;-59
2023/01/01 11:17:50;;;;;;;25.50;3.60;;;11.90;99.90;;;;;;5114384;28;20035;-60
2023/01/01 11:20:19;;;;;;;12.52;2.53;;;11.80;99.90;;;;;;5114574;28;20042;-60
2023/01/01 11:22:54;;;;;;;14.70;2.60;;;11.90;99.90;;;;;;5114463;28;20039;-60
2023/01/01 11:25:26;;;;;;;17.38;3.25;;;11.90;99.90;;;;;;5114292;28;20052;-60
2023/01/01 11:28:12;;;;;;;18.08;2.90;;;11.90;99.90;;;;;;5114469;28;20084;-59
2023/01/01 11:30:38;;;;;;;18.52;3.13;;;11.90;99.90;;;;;;5114699;28;20043;-59
2023/01/01 11:33:04;;;;;;;19.38;3.10;;;11.90;99.90;;;;;;5114430;28;20100;-60
2023/01/01 11:35:47;;;;;;;18.80;3.35;;;11.90;99.90;;;;;;5114074;28;20046;-60
2023/01/01 11:38:18;;;;;;;15.02;2.85;;;11.80;99.90;;;;;;5113946;28;20043;-60
2023/01/01 11:40:47;;;;;;;14.77;2.75;;;11.80;99.90;;;;;;5113898;28;20079;-60
2023/01/01 11:43:27;;;;;;;19.27;3.92;;;11.80;99.90;;;;;;5114055;28;20067;-60
2023/01/01 11:45:54;;;;;;;14.77;2.72;;;11.80;99.90;;;;;;5113201;28;20031;-60
2023/01/01 11:48:28;;;;;;;14.18;2.80;;;11.80;99.90;;;;;;5114136;28;20047;-60
2023/01/01 11:51:03;;;;;;;16.80;2.65;;;11.80;99.90;;;;;;5113279;28;20035;-60
2023/01/01 11:53:31;;;;;;;12.45;2.78;;;11.80;99.90;;;;;;5113873;28;20048;-60
2023/01/01 11:56:01;;;;;;;13.30;2.47;;;11.80;99.90;;;;;;5113798;28;20039;-60
2023/01/01 11:58:33;;;;;;;23.98;2.80;;;11.80;99.90;;;;;;5113412;28;20481;-60
2023/01/01 12:01:03;;;;;;;14.45;3.08;;;11.80;99.90;;;;;;5113757;28;20040;-60
2023/01/01 12:03:47;;;;;;;16.92;3.30;;;11.80;99.90;;;;;;5113483;28;20043;-60
2023/01/01 12:06:31;;;;;;;19.45;3.83;;;11.90;99.90;;;;;;5113650;28;20042;-60
2023/01/01 12:09:14;;;;;;;13.50;2.92;;;11.90;99.90;;;;;;5113438;28;20035;-61
2023/01/01 12:11:43;;;;;;;13.35;3.00;;;12.00;99.90;;;;;;5113531;28;20046;-60
2023/01/01 12:14:47;;;;;;;13.95;2.80;;;12.00;99.90;;;;;;5113315;28;20473;-60
2023/01/01 12:17:17;;;;;;;16.20;2.80;;;12.10;99.90;;;;;;5010897;28;20109;-60
2023/01/01 12:20:01;;;;;;;19.80;3.10;;;12.10;99.90;;;;;;5010617;28;20037;-60
2023/01/01 12:22:27;;;;;;;16.20;3.10;;;12.10;99.90;;;;;;5010884;28;20054;-60
2023/01/01 12:24:53;;;;;;;24.25;4.05;;;12.10;99.90;;;;;;5010878;28;20875;-60
2023/01/01 12:27:43;;;;;;;15.50;3.05;;;12.10;99.90;;;;;;5010851;28;20615;-59
2023/01/01 12:30:19;;;;;;;11.85;2.65;;;12.00;99.90;;;;;;5010914;28;20162;-60
2023/01/01 12:32:58;;;;;;;12.60;2.90;;;12.00;99.90;;;;;;5010495;28;20503;-60
2023/01/01 12:35:38;;;;;;;18.70;3.77;;;12.00;99.90;;;;;;5011054;28;20116;-60
2023/01/01 12:38:12;;;;;;;15.40;3.13;;;12.10;99.90;;;;;;5010523;28;20048;-60
2023/01/01 12:40:48;;;;;;;13.75;3.00;;;12.10;99.90;;;;;;5010249;28;20141;-60
2023/01/01 12:43:38;;;;;;;21.95;3.30;;;12.20;99.90;;;;;;5010386;28;20564;-60
2023/01/01 12:46:19;;;;;;;;;;;12.20;99.90;;;;;;5010911;28;20133;-60
2023/01/01 12:48:58;;;;;;;26.90;3.60;;;12.20;99.90;;;;;;5026697;28;19964;-60
2023/01/01 12:51:34;;;;;;;17.90;3.45;;;12.10;99.90;;;;;;5010170;28;20763;-61
2023/01/01 12:54:36;;;;;;;14.25;3.40;;;12.10;99.90;;;;;;5057629;28;20080;-61
2023/01/01 12:57:21;;;;;;;;;;;12.20;99.90;;;;;;5092525;28;20368;-60
2023/01/01 12:59:49;;;;;;;14.68;3.28;;;12.20;99.90;;;;;;5091654;28;19923;-60
2023/01/01 13:02:24;;;;;;;13.83;2.87;;;12.10;99.90;;;;;;5092157;28;20109;-60